Terminal Aerodrome Forecast
Issued by NWS Topeka, KS

Home | Current Version | Previous Version | Text Only | Print | Product List | Glossary Off
Versions: 1 2 3 4 5 6 7 8 9 10 11 12 13 14 15 16 17

000
FTUS43 KTOP 261120
TAFTOP
TAF
KTOP 261120Z 2612/2712 08006KT P6SM VCTS SCT040CB BKN090
     FM261400 19008KT P6SM SCT100
     FM270100 17004KT P6SM SCT200=

USA.gov is the U.S. government's official web portal to all federal, state and local government web resources and services.